createdAt,value
2022-09-28T00:01:56.431Z,98551.34
2022-09-28T00:05:01.241Z,98557.34
2022-09-28T00:08:05.520Z,98566.72
2022-09-28T00:11:12.895Z,98554.06
2022-09-28T00:14:16.967Z,98546.84
2022-09-28T00:17:22.788Z,98562.00
2022-09-28T00:20:26.891Z,98547.19
2022-09-28T00:23:31.560Z,98556.16
2022-09-28T00:26:35.765Z,98562.00
2022-09-28T00:29:39.927Z,98547.06
2022-09-28T00:32:43.805Z,98553.28
2022-09-28T00:35:55.300Z,98549.59
2022-09-28T00:38:59.766Z,98549.44
2022-09-28T00:42:11.068Z,98540.50
2022-09-28T00:45:15.069Z,98533.69
2022-09-28T00:48:18.808Z,98535.03
2022-09-28T00:51:25.623Z,98541.00
2022-09-28T00:54:30.110Z,98534.19
2022-09-28T00:57:35.388Z,98533.81
2022-09-28T01:00:42.970Z,98532.41
2022-09-28T01:03:48.775Z,98530.25
2022-09-28T01:06:52.920Z,98530.06
2022-09-28T01:09:57.021Z,98531.84
2022-09-28T01:13:01.478Z,98530.69
2022-09-28T01:16:24.879Z,98521.72
2022-09-28T01:19:51.356Z,98525.97
2022-09-28T01:22:55.093Z,98517.78
2022-09-28T01:26:22.330Z,98512.72
2022-09-28T01:29:54.151Z,98505.16
2022-09-28T01:33:10.655Z,98508.25
2022-09-28T01:36:36.652Z,98510.72
2022-09-28T01:39:46.270Z,98503.16
2022-09-28T01:42:55.828Z,98502.97
2022-09-28T01:46:11.151Z,98494.03
2022-09-28T01:49:20.840Z,98480.75
2022-09-28T01:52:32.420Z,98477.66
2022-09-28T01:55:47.978Z,98470.44
2022-09-28T01:58:57.558Z,98466.88
2022-09-28T02:02:11.239Z,98467.47
2022-09-28T02:05:20.921Z,98466.03
2022-09-28T02:08:33.268Z,98460.59
2022-09-28T02:11:41.673Z,98450.13
2022-09-28T02:14:49.161Z,98458.22
2022-09-28T02:17:54.587Z,98447.28
2022-09-28T02:21:41.093Z,98452.16
2022-09-28T02:24:56.518Z,98445.31
2022-09-28T02:28:03.633Z,98443.81
2022-09-28T02:31:07.697Z,98433.50
2022-09-28T02:34:11.805Z,98439.47
2022-09-28T02:37:16.150Z,98449.22
2022-09-28T02:40:26.106Z,98448.84
2022-09-28T02:43:41.034Z,98445.31
2022-09-28T02:46:59.944Z,98438.50
2022-09-28T02:50:21.502Z,98443.72
2022-09-28T02:53:42.938Z,98440.22
2022-09-28T02:57:06.945Z,98444.31
2022-09-28T03:00:22.857Z,98447.78
2022-09-28T03:03:45.644Z,98441.78
2022-09-28T03:07:03.211Z,98436.72
2022-09-28T03:10:19.469Z,98434.22
2022-09-28T03:13:25.525Z,98428.97
2022-09-28T03:16:32.000Z,98428.97
2022-09-28T03:19:36.781Z,98431.50
2022-09-28T03:22:40.751Z,98433.28
2022-09-28T03:25:44.667Z,98425.88
2022-09-28T03:28:48.448Z,98414.44
2022-09-28T03:31:52.300Z,98408.44
2022-09-28T03:34:56.683Z,98402.22
2022-09-28T03:38:00.898Z,98406.72
2022-09-28T03:41:05.198Z,98409.09
2022-09-28T03:44:09.360Z,98409.34
2022-09-28T03:47:13.969Z,98416.75
2022-09-28T03:50:17.786Z,98410.13
2022-09-28T03:53:22.083Z,98401.53
2022-09-28T03:56:26.756Z,98393.31
2022-09-28T03:59:31.210Z,98386.00
2022-09-28T04:02:35.449Z,98377.13
2022-09-28T04:05:39.424Z,98368.69
2022-09-28T04:08:43.645Z,98364.25
2022-09-28T04:12:03.273Z,98365.38
2022-09-28T04:15:08.335Z,98364.63
2022-09-28T04:18:13.555Z,98356.69
2022-09-28T04:21:19.574Z,98344.44
2022-09-28T04:24:23.624Z,98333.34
2022-09-28T04:27:49.128Z,98342.13
2022-09-28T04:30:53.274Z,98339.41
2022-09-28T04:33:57.832Z,98322.09
2022-09-28T04:37:01.899Z,98333.41
2022-09-28T04:40:06.511Z,98331.25
2022-09-28T04:43:10.343Z,98326.63
2022-09-28T04:46:14.888Z,98332.03
2022-09-28T04:49:19.161Z,98323.28
2022-09-28T04:52:23.290Z,98324.44
2022-09-28T04:55:32.214Z,98321.16
2022-09-28T04:58:36.602Z,98313.41
2022-09-28T05:01:40.657Z,98308.34
2022-09-28T05:04:44.742Z,98301.16
2022-09-28T05:07:48.621Z,98312.25
2022-09-28T05:11:00.875Z,98306.84
2022-09-28T05:14:05.779Z,98295.00
2022-09-28T05:17:10.550Z,98300.81
2022-09-28T05:20:14.543Z,98304.34
2022-09-28T05:23:18.512Z,98294.03
2022-09-28T05:26:23.324Z,98281.00
2022-09-28T05:29:31.950Z,98276.13
2022-09-28T05:32:40.664Z,98274.78
2022-09-28T05:35:44.386Z,98274.38
2022-09-28T05:38:48.493Z,98276.91
2022-09-28T05:41:52.500Z,98274.97
2022-09-28T05:44:58.227Z,98274.19
2022-09-28T05:48:02.225Z,98273.03
2022-09-28T05:51:06.639Z,98269.56
2022-09-28T05:54:11.091Z,98267.78
2022-09-28T05:57:15.626Z,98268.19
2022-09-28T06:00:19.920Z,98267.97
2022-09-28T06:03:24.028Z,98259.81
2022-09-28T06:06:28.039Z,98267.97
2022-09-28T06:09:31.941Z,98262.13
2022-09-28T06:12:35.867Z,98261.00
2022-09-28T06:15:42.499Z,98268.56
2022-09-28T06:18:46.348Z,98266.03
2022-09-28T06:21:50.262Z,98264.47
2022-09-28T06:24:54.195Z,98269.13
2022-09-28T06:27:59.306Z,98263.13
2022-09-28T06:31:03.497Z,98270.72
2022-09-28T06:34:09.483Z,98267.00
2022-09-28T06:37:13.415Z,98266.78
2022-09-28T06:40:17.842Z,98268.38
2022-09-28T06:43:22.544Z,98260.78
2022-09-28T06:46:27.067Z,98274.78
2022-09-28T06:49:31.449Z,98268.78
2022-09-28T06:52:35.193Z,98271.09
2022-09-28T06:55:43.839Z,98276.16
2022-09-28T06:58:48.352Z,98272.44
2022-09-28T07:01:52.336Z,98274.78
2022-09-28T07:04:56.975Z,98274.22
2022-09-28T07:08:01.919Z,98273.03
2022-09-28T07:11:07.663Z,98271.47
2022-09-28T07:14:24.509Z,98269.53
2022-09-28T07:17:49.322Z,98273.78
2022-09-28T07:20:59.145Z,98272.06
2022-09-28T07:24:03.371Z,98270.31
2022-09-28T07:27:08.030Z,98270.13
2022-09-28T07:30:12.324Z,98277.91
2022-09-28T07:33:17.679Z,98282.38
2022-09-28T07:36:22.730Z,98281.19
2022-09-28T07:39:26.856Z,98274.78
2022-09-28T07:42:31.151Z,98281.00
2022-09-28T07:45:36.023Z,98280.59
2022-09-28T07:48:41.685Z,98284.09
2022-09-28T07:51:45.714Z,98283.91
2022-09-28T07:54:52.081Z,98278.25
2022-09-28T07:58:01.116Z,98278.63
2022-09-28T08:01:08.480Z,98287.59
2022-09-28T08:04:12.417Z,98286.44
2022-09-28T08:07:21.556Z,98288.97
2022-09-28T08:10:27.319Z,98281.97
2022-09-28T08:13:31.457Z,98280.03
2022-09-28T08:16:35.473Z,98285.09
2022-09-28T08:19:57.882Z,98287.00
2022-09-28T08:23:09.742Z,98291.09
2022-09-28T08:26:15.657Z,98287.03
2022-09-28T08:29:20.374Z,98293.47
2022-09-28T08:32:24.738Z,98296.75
2022-09-28T08:35:28.521Z,98302.59
2022-09-28T08:38:32.649Z,98298.31
2022-09-28T08:41:46.687Z,98297.53
2022-09-28T08:44:57.905Z,98296.41
2022-09-28T08:48:36.690Z,98292.28
2022-09-28T08:52:05.655Z,98294.44
2022-09-28T08:55:28.637Z,98294.81
2022-09-28T08:58:37.655Z,98297.75
2022-09-28T09:01:48.826Z,98298.69
2022-09-28T09:04:52.919Z,98293.25
2022-09-28T09:08:26.149Z,98303.94
2022-09-28T09:12:04.146Z,98308.03
2022-09-28T09:15:40.574Z,98309.38
2022-09-28T09:19:05.830Z,98296.34
2022-09-28T09:22:17.562Z,98300.59
2022-09-28T09:25:28.433Z,98302.56
2022-09-28T09:28:55.426Z,98307.59
2022-09-28T09:32:05.644Z,98309.38
2022-09-28T09:35:20.639Z,98309.56
2022-09-28T09:38:47.606Z,98305.66
2022-09-28T09:42:10.393Z,98307.75
2022-09-28T09:45:35.584Z,98300.84
2022-09-28T09:48:47.224Z,98319.53
2022-09-28T09:52:11.163Z,98309.34
2022-09-28T09:55:21.164Z,98308.94
2022-09-28T09:58:36.392Z,98307.53
2022-09-28T10:01:41.663Z,98307.63
2022-09-28T10:04:48.978Z,98310.78
2022-09-28T10:08:08.375Z,98316.81
2022-09-28T10:11:27.383Z,98306.69
2022-09-28T10:14:31.534Z,98315.25
2022-09-28T10:17:37.241Z,98309.00
2022-09-28T10:20:45.430Z,98312.25
2022-09-28T10:23:58.326Z,98315.13
2022-09-28T10:27:15.439Z,98304.88
2022-09-28T10:30:25.309Z,98324.34
2022-09-28T10:33:35.325Z,98323.56
2022-09-28T10:37:01.025Z,98318.25
2022-09-28T10:40:06.105Z,98328.91
2022-09-28T10:43:38.421Z,98332.00
2022-09-28T10:46:42.337Z,98334.31
2022-09-28T10:49:49.424Z,98339.78
2022-09-28T10:52:53.960Z,98337.84
2022-09-28T10:56:02.822Z,98347.25
2022-09-28T10:59:23.565Z,98346.84
2022-09-28T11:02:37.317Z,98342.41
2022-09-28T11:05:52.576Z,98352.31
2022-09-28T11:09:00.755Z,98344.88
2022-09-28T11:12:06.733Z,98349.31
2022-09-28T11:15:20.611Z,98347.50
2022-09-28T11:18:32.350Z,98345.94
2022-09-28T11:21:43.875Z,98349.00
2022-09-28T11:24:49.446Z,98352.28
2022-09-28T11:27:53.143Z,98360.19
2022-09-28T11:30:57.664Z,98356.28
2022-09-28T11:34:47.823Z,98362.50
2022-09-28T11:38:03.403Z,98360.34
2022-09-28T11:41:31.625Z,98366.75
2022-09-28T11:44:44.513Z,98365.66
2022-09-28T11:48:16.394Z,98376.00
2022-09-28T11:51:42.109Z,98368.22
2022-09-28T11:54:59.514Z,98379.13
2022-09-28T11:58:14.229Z,98376.50
2022-09-28T12:01:21.115Z,98380.63
2022-09-28T12:04:33.342Z,98381.06
2022-09-28T12:07:43.913Z,98376.78
2022-09-28T12:11:03.086Z,98385.19
2022-09-28T12:14:18.641Z,98376.34
2022-09-28T12:17:42.877Z,98389.28
2022-09-28T12:20:52.092Z,98385.19
2022-09-28T12:24:03.651Z,98384.16
2022-09-28T12:27:16.802Z,98383.97
2022-09-28T12:30:25.197Z,98384.28
2022-09-28T12:33:29.265Z,98401.88
2022-09-28T12:36:55.256Z,98395.25
2022-09-28T12:40:30.991Z,98395.94
2022-09-28T12:43:54.577Z,98401.06
2022-09-28T12:47:09.626Z,98406.34
2022-09-28T12:50:39.924Z,98412.88
2022-09-28T12:53:52.913Z,98415.75
2022-09-28T12:57:21.398Z,98429.31
2022-09-28T13:00:49.385Z,98431.13
2022-09-28T13:04:08.307Z,98438.19
2022-09-28T13:07:21.365Z,98443.28
2022-09-28T13:10:41.786Z,98434.06
2022-09-28T13:14:20.139Z,98431.88
2022-09-28T13:18:03.428Z,98429.09
2022-09-28T13:21:12.925Z,98434.09
2022-09-28T13:24:32.732Z,98431.53
2022-09-28T13:28:08.243Z,98429.81
2022-09-28T13:31:17.355Z,98446.75
2022-09-28T13:34:24.925Z,98448.19
2022-09-28T13:37:29.667Z,98453.13
2022-09-28T13:41:06.081Z,98445.38
2022-09-28T13:44:22.169Z,98444.81
2022-09-28T13:47:40.001Z,98447.25
2022-09-28T13:51:21.700Z,98447.34
2022-09-28T13:54:39.471Z,98460.63
2022-09-28T13:58:04.398Z,98448.19
2022-09-28T14:01:16.708Z,98445.69
2022-09-28T14:04:45.252Z,98446.94
2022-09-28T14:08:18.002Z,98444.66
2022-09-28T14:11:34.721Z,98443.41
2022-09-28T14:14:50.917Z,98456.09
2022-09-28T14:18:07.323Z,98452.31
2022-09-28T14:21:32.871Z,98459.06
2022-09-28T14:24:45.131Z,98460.91
2022-09-28T14:28:33.919Z,98466.22
2022-09-28T14:31:43.547Z,98467.38
2022-09-28T14:34:56.472Z,98469.72
2022-09-28T14:38:31.547Z,98466.66
2022-09-28T14:41:44.670Z,98462.75
2022-09-28T14:45:06.663Z,98463.94
2022-09-28T14:48:15.295Z,98468.44
2022-09-28T14:51:32.911Z,98471.16
2022-09-28T14:54:50.541Z,98480.72
2022-09-28T14:57:59.162Z,98481.69
2022-09-28T15:01:10.705Z,98487.94
2022-09-28T15:04:15.361Z,98487.56
2022-09-28T15:07:29.699Z,98492.44
2022-09-28T15:10:37.051Z,98492.78
2022-09-28T15:13:42.503Z,98489.03
2022-09-28T15:16:46.404Z,98490.78
2022-09-28T15:20:06.676Z,98495.63
2022-09-28T15:23:34.619Z,98497.28
2022-09-28T15:26:38.464Z,98501.97
2022-09-28T15:29:56.523Z,98502.97
2022-09-28T15:33:21.105Z,98506.09
2022-09-28T15:36:28.457Z,98517.00
2022-09-28T15:39:34.746Z,98509.56
2022-09-28T15:42:38.759Z,98508.38
2022-09-28T15:45:44.629Z,98520.44
2022-09-28T15:48:57.046Z,98521.66
2022-09-28T15:52:03.078Z,98512.69
2022-09-28T15:55:19.046Z,98519.72
2022-09-28T15:58:24.265Z,98525.63
2022-09-28T16:01:37.817Z,98522.31
2022-09-28T16:04:50.314Z,98524.44
2022-09-28T16:07:56.202Z,98531.88
2022-09-28T16:11:20.141Z,98545.31
2022-09-28T16:14:27.069Z,98542.97
2022-09-28T16:17:33.583Z,98545.13
2022-09-28T16:20:40.150Z,98543.97
2022-09-28T16:23:51.020Z,98542.22
2022-09-28T16:27:29.122Z,98554.47
2022-09-28T16:30:34.636Z,98549.22
2022-09-28T16:33:48.816Z,98556.22
2022-09-28T16:36:52.680Z,98561.09
2022-09-28T16:39:56.389Z,98563.22
2022-09-28T16:43:04.125Z,98566.75
2022-09-28T16:46:12.677Z,98568.31
2022-09-28T16:49:18.754Z,98568.13
2022-09-28T16:52:42.794Z,98574.75
2022-09-28T16:55:47.948Z,98581.16
2022-09-28T16:58:51.989Z,98578.63
2022-09-28T17:01:56.699Z,98579.78
2022-09-28T17:05:00.923Z,98595.38
2022-09-28T17:08:05.210Z,98590.31
2022-09-28T17:11:16.854Z,98594.59
2022-09-28T17:14:24.164Z,98591.69
2022-09-28T17:17:31.010Z,98594.41
2022-09-28T17:20:37.525Z,98603.59
2022-09-28T17:23:42.733Z,98594.03
2022-09-28T17:26:49.042Z,98592.28
2022-09-28T17:29:53.149Z,98602.41
2022-09-28T17:32:57.136Z,98609.78
2022-09-28T17:36:04.666Z,98611.38
2022-09-28T17:39:14.080Z,98615.81
2022-09-28T17:42:18.168Z,98625.00
2022-09-28T17:45:26.916Z,98617.16
2022-09-28T17:48:34.344Z,98618.34
2022-09-28T17:51:38.722Z,98628.06
2022-09-28T17:54:42.870Z,98624.91
2022-09-28T17:57:47.091Z,98621.41
2022-09-28T18:00:51.694Z,98622.13
2022-09-28T18:03:55.854Z,98620.63
2022-09-28T18:07:00.131Z,98631.47
2022-09-28T18:10:06.501Z,98642.00
2022-09-28T18:13:11.415Z,98643.41
2022-09-28T18:16:15.833Z,98644.97
2022-09-28T18:19:20.198Z,98643.44
2022-09-28T18:22:24.263Z,98651.59
2022-09-28T18:25:29.633Z,98646.94
2022-09-28T18:28:33.779Z,98648.13
2022-09-28T18:31:38.024Z,98662.09
2022-09-28T18:34:42.261Z,98667.94
2022-09-28T18:37:46.092Z,98669.09
2022-09-28T18:40:50.458Z,98669.28
2022-09-28T18:44:00.586Z,98672.59
2022-09-28T18:47:04.549Z,98667.75
2022-09-28T18:50:09.681Z,98672.00
2022-09-28T18:53:14.483Z,98671.97
2022-09-28T18:56:19.154Z,98677.78
2022-09-28T18:59:23.770Z,98679.53
2022-09-28T19:02:28.010Z,98685.50
2022-09-28T19:05:33.735Z,98682.00
2022-09-28T19:08:37.723Z,98685.06
2022-09-28T19:11:41.649Z,98685.03
2022-09-28T19:14:45.760Z,98685.78
2022-09-28T19:17:50.286Z,98682.03
2022-09-28T19:20:54.294Z,98678.31
2022-09-28T19:24:02.729Z,98694.66
2022-09-28T19:27:06.678Z,98693.28
2022-09-28T19:30:11.234Z,98686.81
2022-09-28T19:33:17.444Z,98692.25
2022-09-28T19:36:24.070Z,98690.50
2022-09-28T19:39:27.967Z,98694.34
2022-09-28T19:42:32.016Z,98688.97
2022-09-28T19:45:36.306Z,98688.53
2022-09-28T19:48:42.271Z,98699.59
2022-09-28T19:55:14.599Z,98694.56
2022-09-28T19:58:18.582Z,98696.16
2022-09-28T20:01:22.429Z,98701.97
2022-09-28T20:04:26.574Z,98702.94
2022-09-28T20:07:32.935Z,98712.72
2022-09-28T20:10:40.071Z,98709.75
2022-09-28T20:13:44.859Z,98714.63
2022-09-28T20:16:49.053Z,98715.00
2022-09-28T20:19:53.093Z,98723.34
2022-09-28T20:22:58.020Z,98727.22
2022-09-28T20:26:07.163Z,98722.16
2022-09-28T20:29:11.947Z,98720.13
2022-09-28T20:32:16.270Z,98738.16
2022-09-28T20:35:32.215Z,98741.44
2022-09-28T20:38:40.535Z,98736.75
2022-09-28T20:41:46.118Z,98734.22
2022-09-28T20:44:50.295Z,98735.13
2022-09-28T20:47:54.235Z,98737.25
2022-09-28T20:51:03.887Z,98736.00
2022-09-28T20:54:08.307Z,98747.69
2022-09-28T20:57:18.365Z,98743.19
2022-09-28T21:00:22.449Z,98746.25
2022-09-28T21:03:26.959Z,98746.25
2022-09-28T21:06:33.182Z,98744.69
2022-09-28T21:09:37.705Z,98747.56
2022-09-28T21:12:41.958Z,98749.22
2022-09-28T21:15:46.742Z,98753.69
2022-09-28T21:18:51.049Z,98752.47
2022-09-28T21:21:55.542Z,98749.19
2022-09-28T21:24:59.596Z,98763.53
2022-09-28T21:28:03.457Z,98763.88
2022-09-28T21:31:10.139Z,98773.38
2022-09-28T21:34:20.262Z,98765.19
2022-09-28T21:37:24.460Z,98770.44
2022-09-28T21:40:29.075Z,98769.03
2022-09-28T21:43:33.134Z,98777.72
2022-09-28T21:46:38.801Z,98772.84
2022-09-28T21:49:43.135Z,98781.41
2022-09-28T21:52:47.009Z,98792.81
2022-09-28T21:55:53.029Z,98791.06
2022-09-28T21:58:57.117Z,98789.44
2022-09-28T22:02:01.081Z,98790.97
2022-09-28T22:05:06.546Z,98796.63
2022-09-28T22:08:10.699Z,98796.47
2022-09-28T22:11:20.482Z,98794.66
2022-09-28T22:14:24.619Z,98794.03
2022-09-28T22:17:28.637Z,98798.91
2022-09-28T22:20:32.676Z,98794.84
2022-09-28T22:23:37.922Z,98794.66
2022-09-28T22:26:41.841Z,98799.16
2022-09-28T22:29:46.194Z,98804.84
2022-09-28T22:32:50.251Z,98802.91
2022-09-28T22:35:54.937Z,98792.03
2022-09-28T22:38:59.653Z,98799.06
2022-09-28T22:42:03.470Z,98800.38
2022-09-28T22:45:07.415Z,98798.03
2022-09-28T22:48:12.226Z,98808.19
2022-09-28T22:51:16.634Z,98801.06
2022-09-28T22:54:21.499Z,98809.44
2022-09-28T22:57:25.459Z,98807.16
2022-09-28T23:00:30.624Z,98806.91
2022-09-28T23:03:35.523Z,98805.00
2022-09-28T23:06:40.002Z,98803.06
2022-09-28T23:09:44.175Z,98807.16
2022-09-28T23:12:48.216Z,98801.59
2022-09-28T23:16:03.978Z,98797.31
2022-09-28T23:19:08.105Z,98795.13
2022-09-28T23:22:12.007Z,98801.59
2022-09-28T23:25:17.653Z,98803.56
2022-09-28T23:28:23.704Z,98794.25
2022-09-28T23:31:30.501Z,98792.13
2022-09-28T23:34:34.425Z,98800.47
2022-09-28T23:37:38.623Z,98811.69
2022-09-28T23:40:42.838Z,98811.78
2022-09-28T23:43:46.917Z,98803.69
2022-09-28T23:46:50.943Z,98801.50
2022-09-28T23:49:55.103Z,98801.16
2022-09-28T23:52:59.126Z,98801.50
2022-09-28T23:56:02.941Z,98794.69
2022-09-28T23:59:07.452Z,98794.69
